Time;durP1;ratioP1;P1;durP2;ratioP2;P2;SDS_P1;SDS_P2;PMS_P1;PMS_P2;Temp;Humidity;BMP_temperature;BMP_pressure;BME280_temperature;BME280_humidity;BME280_pressure;Samples;Min_cycle;Max_cycle;Signal;HPM_P1;HPM_P2
2023/05/31 00:02:13;;;;;;;8.27;2.10;;;;;;;15.39;44.64;98866.50;5026064;28;20232;-63
2023/05/31 00:04:40;;;;;;;4.03;2.20;;;;;;;15.25;45.38;98859.38;5038733;28;20614;-63
2023/05/31 00:07:07;;;;;;;7.47;2.63;;;;;;;15.29;45.02;98856.22;5037396;28;20232;-63
2023/05/31 00:09:41;;;;;;;7.23;2.37;;;;;;;15.63;43.10;98846.25;5024425;28;20258;-63
2023/05/31 00:12:09;;;;;;;3.33;2.10;;;;;;;15.85;43.26;98849.81;5038365;28;20302;-63
2023/05/31 00:14:40;;;;;;;5.50;2.43;;;;;;;15.94;42.93;98863.75;5031319;28;20232;-63
2023/05/31 00:17:07;;;;;;;5.40;2.10;;;;;;;16.02;42.98;98852.31;5034176;28;20225;-63
2023/05/31 00:19:58;;;;;;;4.77;2.50;;;;;;;16.10;43.08;98846.97;5033129;28;20236;-63
2023/05/31 00:22:25;;;;;;;5.50;3.13;;;;;;;16.15;41.56;98841.16;5015203;28;20225;-63
2023/05/31 00:24:55;;;;;;;8.37;2.50;;;;;;;16.03;42.43;98838.97;5036227;28;20310;-63
2023/05/31 00:27:21;;;;;;;12.73;2.30;;;;;;;16.14;42.85;98842.97;5033706;28;20617;-63
2023/05/31 00:29:48;;;;;;;4.57;2.30;;;;;;;16.11;42.77;98839.88;5040796;28;20227;-63
2023/05/31 00:32:14;;;;;;;9.97;2.40;;;;;;;16.08;42.69;98847.13;5039836;28;20241;-63
2023/05/31 00:34:41;;;;;;;9.10;2.20;;;;;;;16.26;41.50;98853.88;5027912;28;20231;-63
2023/05/31 00:37:08;;;;;;;8.20;2.10;;;;;;;16.30;41.30;98844.59;5029812;28;20707;-63
2023/05/31 00:39:40;;;;;;;3.93;2.03;;;;;;;16.37;41.22;98858.69;5053543;28;20457;-63
2023/05/31 00:42:09;;;;;;;5.20;2.27;;;;;;;16.24;41.86;98850.59;5042685;28;20233;-63
2023/05/31 00:44:40;;;;;;;3.80;2.30;;;;;;;16.11;42.31;98853.88;5036756;28;20221;-63
2023/05/31 00:47:08;;;;;;;6.53;2.63;;;;;;;16.23;41.73;98857.69;5037794;28;20236;-63
2023/05/31 00:49:40;;;;;;;8.13;2.40;;;;;;;16.52;40.09;98855.22;5049728;28;20221;-63
2023/05/31 00:52:08;;;;;;;9.93;2.33;;;;;;;16.44;41.64;98863.22;5037907;28;20288;-63
2023/05/31 00:54:40;;;;;;;4.87;2.30;;;;;;;16.50;41.30;98860.66;5027544;28;20232;-63
2023/05/31 00:57:08;;;;;;;4.80;2.10;;;;;;;16.43;40.83;98861.59;5044666;28;20603;-63
2023/05/31 00:59:40;;;;;;;5.73;2.70;;;;;;;16.32;41.82;98861.03;5052425;28;21892;-63
2023/05/31 01:02:07;;;;;;;4.37;2.37;;;;;;;16.23;41.68;98855.06;5039486;28;20635;-63
2023/05/31 01:04:40;;;;;;;6.50;2.20;;;;;;;16.25;41.47;98861.97;5036177;28;20291;-63
2023/05/31 01:07:08;;;;;;;5.60;2.40;;;;;;;16.25;40.69;98846.97;5035178;28;20235;-63
2023/05/31 01:09:42;;;;;;;7.43;2.80;;;;;;;16.27;40.12;98859.97;5036595;28;20221;-63
2023/05/31 01:12:22;;;;;;;5.97;2.17;;;;;;;16.19;40.97;98853.78;5035431;28;20945;-63
2023/05/31 01:15:03;;;;;;;8.50;2.40;;;;;;;16.13;40.44;98864.22;5036655;28;20278;-63
2023/05/31 01:17:37;;;;;;;4.20;2.20;;;;;;;16.05;41.46;98860.66;5036769;28;20259;-63
2023/05/31 01:20:08;;;;;;;7.30;2.80;;;;;;;16.10;40.47;98870.66;5034184;28;20820;-63
2023/05/31 01:22:50;;;;;;;6.77;2.60;;;;;;;16.46;38.32;98864.66;5032891;28;20244;-63
2023/05/31 01:25:29;;;;;;;7.00;2.10;;;;;;;16.57;38.96;98852.00;5043023;28;20233;-63
2023/05/31 01:27:59;;;;;;;4.83;2.40;;;;;;;16.63;38.20;98860.00;5028519;28;20242;-63
2023/05/31 01:30:28;;;;;;;6.63;2.53;;;;;;;16.58;38.64;98856.28;5049008;28;20711;-63
2023/05/31 01:32:58;;;;;;;7.63;2.40;;;;;;;16.53;39.09;98876.09;5035387;28;20282;-63
2023/05/31 01:35:25;;;;;;;5.73;2.10;;;;;;;16.89;36.73;98874.50;5050055;28;20227;-63
2023/05/31 01:37:53;;;;;;;5.67;2.47;;;;;;;16.73;37.83;98865.00;5038557;28;20627;-63
2023/05/31 01:40:20;;;;;;;11.30;2.87;;;;;;;16.48;40.25;98859.22;5037495;28;20497;-63
2023/05/31 01:42:49;;;;;;;6.83;2.20;;;;;;;16.19;41.60;98871.38;5024445;28;20727;-63
2023/05/31 01:45:18;;;;;;;6.97;2.30;;;;;;;15.91;41.42;98866.72;5042560;28;20306;-63
2023/05/31 01:47:46;;;;;;;4.50;2.10;;;;;;;15.76;41.60;98871.94;5018688;28;20229;-63
2023/05/31 01:50:14;;;;;;;4.67;2.33;;;;;;;15.79;43.36;98861.06;5036824;28;20225;-63
2023/05/31 01:52:41;;;;;;;6.07;2.20;;;;;;;15.68;42.57;98862.31;5040784;28;20317;-63
2023/05/31 01:55:08;;;;;;;5.13;1.90;;;;;;;15.57;45.03;98860.13;5035597;28;20229;-63
2023/05/31 01:57:39;;;;;;;4.53;2.20;;;;;;;15.34;44.60;98864.41;5050283;28;20232;-63
2023/05/31 02:00:11;;;;;;;3.73;2.10;;;;;;;15.22;45.89;98878.97;5034748;28;20731;-63
2023/05/31 02:02:42;;;;;;;4.63;2.10;;;;;;;15.14;45.23;98861.41;5034294;28;20264;-63
2023/05/31 02:05:12;;;;;;;5.23;2.10;;;;;;;14.95;46.37;98867.09;5052438;28;20232;-63
2023/05/31 02:07:40;;;;;;;4.67;1.90;;;;;;;14.80;47.19;98864.41;5038965;28;20777;-63
2023/05/31 02:10:08;;;;;;;10.33;3.10;;;;;;;14.58;47.84;98864.97;5029637;28;20285;-63
2023/05/31 02:12:37;;;;;;;6.30;2.40;;;;;;;14.55;47.78;98864.50;5033505;28;20240;-63
2023/05/31 02:15:10;;;;;;;5.13;1.93;;;;;;;14.55;47.21;98852.19;5033146;28;20227;-63
2023/05/31 02:17:40;;;;;;;4.03;2.30;;;;;;;14.44;47.83;98861.25;5030200;28;20737;-63
2023/05/31 02:20:12;;;;;;;5.13;2.17;;;;;;;14.24;48.95;98858.19;5046835;28;20228;-63
2023/05/31 02:22:39;;;;;;;8.27;2.63;;;;;;;14.04;50.87;98857.78;5035056;28;20686;-63
2023/05/31 02:25:08;;;;;;;5.10;2.27;;;;;;;13.91;50.55;98854.84;5039961;28;20263;-63
2023/05/31 02:27:34;;;;;;;7.13;2.40;;;;;;;13.80;51.06;98858.59;5040726;28;20236;-63
2023/05/31 02:30:01;;;;;;;10.67;2.30;;;;;;;13.73;49.98;98855.84;5042694;28;20285;-63
2023/05/31 02:32:27;;;;;;;4.17;2.27;;;;;;;13.70;51.24;98856.19;5035411;28;20233;-63
2023/05/31 02:34:54;;;;;;;4.70;2.30;;;;;;;13.58;50.99;98851.25;5036301;28;20238;-63
2023/05/31 02:37:22;;;;;;;7.57;2.13;;;;;;;13.48;53.18;98855.84;5033543;28;20234;-63
2023/05/31 02:39:49;;;;;;;5.70;2.63;;;;;;;13.36;53.31;98855.34;5035545;28;20237;-63
2023/05/31 02:42:15;;;;;;;3.63;2.13;;;;;;;13.38;52.94;98863.03;5036675;28;20231;-63
2023/05/31 02:44:42;;;;;;;7.30;2.40;;;;;;;13.29;52.95;98854.34;5039473;28;20717;-63
2023/05/31 02:47:09;;;;;;;5.50;2.50;;;;;;;13.21;53.94;98851.72;5036119;28;20335;-63
2023/05/31 02:49:40;;;;;;;5.83;2.37;;;;;;;13.16;52.95;98865.31;5050015;28;20225;-63
2023/05/31 02:52:07;;;;;;;6.43;2.13;;;;;;;13.04;53.39;98863.97;5042085;28;20235;-63
2023/05/31 02:55:00;;;;;;;5.03;2.17;;;;;;;12.97;53.08;98862.00;5026464;28;20227;-63
2023/05/31 02:57:31;;;;;;;4.53;2.47;;;;;;;13.02;54.12;98865.94;5040401;28;20320;-63
2023/05/31 03:00:08;;;;;;;4.50;2.07;;;;;;;13.01;53.71;98865.09;5040594;28;20229;-63
2023/05/31 03:02:35;;;;;;;6.00;1.97;;;;;;;12.87;56.58;98863.94;5039466;28;20232;-63
2023/05/31 03:05:23;;;;;;;4.20;2.30;;;;;;;12.71;56.67;98856.88;5029295;28;20659;-63
2023/05/31 03:07:49;;;;;;;5.23;1.73;;;;;;;12.63;56.75;98870.72;5030499;28;20233;-63
2023/05/31 03:10:17;;;;;;;7.23;2.50;;;;;;;12.52;57.66;98869.22;5037113;28;20344;-63
2023/05/31 03:12:44;;;;;;;8.90;2.30;;;;;;;12.40;58.17;98867.88;5024868;28;20243;-63
2023/05/31 03:15:11;;;;;;;3.87;2.17;;;;;;;12.30;59.77;98878.44;5035254;28;20234;-63
2023/05/31 03:17:38;;;;;;;5.57;2.57;;;;;;;12.18;59.66;98869.25;5032967;28;20231;-63
2023/05/31 03:20:08;;;;;;;4.07;2.23;;;;;;;12.11;61.20;98876.88;5036669;28;20238;-63
2023/05/31 03:22:36;;;;;;;4.23;2.30;;;;;;;12.15;59.26;98883.44;5030604;28;20253;-63
2023/05/31 03:25:03;;;;;;;3.13;2.00;;;;;;;12.20;58.95;98877.72;5036301;28;20235;-63
2023/05/31 03:27:33;;;;;;;6.07;2.40;;;;;;;12.21;59.33;98884.59;5032366;28;20232;-63
2023/05/31 03:30:00;;;;;;;4.65;2.05;;;;;;;12.31;57.99;98887.94;5037261;28;20532;-63
2023/05/31 03:32:27;;;;;;;5.73;2.97;;;;;;;12.23;57.85;98891.34;5221737;22;20811;-63
2023/05/31 03:34:53;;;;;;;4.40;2.20;;;;;;;12.23;59.21;98887.88;5000454;28;20270;-63
2023/05/31 03:37:21;;;;;;;7.17;1.90;;;;;;;12.24;58.90;98892.97;4995368;28;20226;-63
2023/05/31 03:39:54;;;;;;;12.97;2.20;;;;;;;12.24;59.48;98886.91;5000147;28;20224;-63
2023/05/31 03:42:31;;;;;;;5.77;2.20;;;;;;;12.20;61.45;98890.81;5008824;28;21173;-63
2023/05/31 03:44:59;;;;;;;7.27;2.83;;;;;;;12.17;61.42;98888.53;4996471;28;20247;-63
2023/05/31 03:47:26;;;;;;;4.83;2.17;;;;;;;12.16;61.03;98887.69;4992651;28;20229;-63
2023/05/31 03:49:53;;;;;;;3.53;2.13;;;;;;;12.08;61.04;98888.47;5001721;28;20231;-63
2023/05/31 03:52:20;;;;;;;3.97;2.10;;;;;;;12.03;62.29;98898.59;5001565;28;20313;-63
2023/05/31 03:54:47;;;;;;;6.63;2.40;;;;;;;11.96;63.25;98897.53;5011651;28;20235;-63
2023/05/31 03:57:15;;;;;;;5.47;2.20;;;;;;;11.86;63.48;98897.59;5000682;28;20700;-63
2023/05/31 03:59:41;;;;;;;8.73;2.37;;;;;;;11.91;64.05;98900.56;4993019;28;20251;-63
2023/05/31 04:02:09;;;;;;;5.57;2.63;;;;;;;11.83;63.95;98900.53;4996949;28;20225;-63
2023/05/31 04:04:40;;;;;;;4.97;2.23;;;;;;;11.80;65.71;98899.03;4996955;28;22573;-63
2023/05/31 04:07:08;;;;;;;8.70;2.53;;;;;;;11.82;64.98;98899.72;4995621;28;20235;-63
2023/05/31 04:09:40;;;;;;;6.97;2.77;;;;;;;11.79;65.33;98907.03;4997946;28;20702;-63
2023/05/31 04:12:07;;;;;;;6.10;2.50;;;;;;;11.76;64.98;98909.94;5011020;28;20695;-63
2023/05/31 04:14:59;;;;;;;3.57;2.00;;;;;;;11.79;67.06;98909.63;5003212;28;20263;-63
2023/05/31 04:17:27;;;;;;;7.83;2.43;;;;;;;11.77;66.93;98915.03;4996656;28;20232;-63
2023/05/31 04:19:54;;;;;;;6.97;2.60;;;;;;;11.81;67.37;98918.16;4999956;28;20289;-63
2023/05/31 04:22:22;;;;;;;5.30;2.50;;;;;;;11.79;67.14;98920.94;5020562;28;20303;-63
2023/05/31 04:24:49;;;;;;;6.27;2.33;;;;;;;11.81;66.50;98918.16;4996619;28;20595;-63
2023/05/31 04:27:21;;;;;;;4.73;2.33;;;;;;;11.80;67.94;98917.34;5004147;28;20741;-63
2023/05/31 04:29:50;;;;;;;3.70;2.43;;;;;;;11.80;68.34;98913.91;4996571;28;20709;-63
2023/05/31 04:32:21;;;;;;;6.57;2.70;;;;;;;11.86;67.13;98910.69;4999273;28;20224;-63
2023/05/31 04:34:52;;;;;;;4.67;2.40;;;;;;;11.82;66.90;98914.56;4997000;28;20255;-63
2023/05/31 04:37:19;;;;;;;6.60;2.53;;;;;;;11.84;66.66;98920.47;4999716;28;20771;-63
2023/05/31 04:39:46;;;;;;;5.70;2.20;;;;;;;11.84;67.03;98917.84;4996074;28;20231;-63
2023/05/31 04:42:14;;;;;;;6.63;2.30;;;;;;;11.80;69.80;98919.97;5004687;28;20732;-63
2023/05/31 04:44:42;;;;;;;6.33;2.30;;;;;;;11.88;67.63;98913.16;4994970;28;20252;-63
2023/05/31 04:47:09;;;;;;;5.80;3.20;;;;;;;11.94;68.30;98917.78;5001703;28;20609;-63
2023/05/31 04:49:40;;;;;;;4.43;2.07;;;;;;;11.93;68.37;98910.91;4996681;28;20270;-63
2023/05/31 04:52:09;;;;;;;4.27;2.20;;;;;;;11.92;68.39;98912.69;5011831;28;20233;-63
2023/05/31 04:54:40;;;;;;;6.10;2.23;;;;;;;11.93;70.03;98910.91;4993693;28;20229;-63
2023/05/31 04:57:07;;;;;;;6.30;2.47;;;;;;;11.97;69.19;98909.63;4997108;28;20241;-63
2023/05/31 04:59:59;;;;;;;6.13;2.13;;;;;;;12.04;68.85;98907.25;4996650;28;20244;-63
2023/05/31 05:02:27;;;;;;;4.37;2.37;;;;;;;12.13;69.09;98905.50;5004551;28;20240;-63
2023/05/31 05:04:55;;;;;;;7.07;2.70;;;;;;;12.10;70.36;98917.94;5004492;28;20233;-63
2023/05/31 05:07:23;;;;;;;7.80;2.50;;;;;;;12.09;70.02;98916.28;5019168;28;20765;-63
2023/05/31 05:09:50;;;;;;;10.17;2.60;;;;;;;12.16;70.16;98921.72;5003577;28;20711;-63
2023/05/31 05:12:16;;;;;;;6.10;2.53;;;;;;;12.20;69.56;98915.19;4997596;28;20255;-63
2023/05/31 05:14:46;;;;;;;7.60;2.10;;;;;;;12.28;68.89;98903.13;4994625;28;20235;-63
2023/05/31 05:17:12;;;;;;;4.97;2.33;;;;;;;12.31;68.51;98910.69;4996539;28;20224;-63
2023/05/31 05:19:40;;;;;;;5.93;2.43;;;;;;;12.43;66.72;98913.84;5007773;28;20325;-63
2023/05/31 05:22:09;;;;;;;5.77;2.37;;;;;;;12.50;66.59;98917.47;4983918;28;20602;-63
2023/05/31 05:24:42;;;;;;;6.33;2.03;;;;;;;12.58;66.03;98919.34;4997549;28;20231;-63
2023/05/31 05:27:10;;;;;;;9.33;2.60;;;;;;;12.72;64.44;98917.91;4996583;28;20756;-63
2023/05/31 05:29:40;;;;;;;3.90;2.13;;;;;;;12.84;63.96;98921.91;5017538;28;20225;-63
2023/05/31 05:32:08;;;;;;;3.77;1.97;;;;;;;12.94;63.65;98916.50;4997260;28;20236;-63
2023/05/31 05:34:40;;;;;;;3.70;2.10;;;;;;;13.03;64.22;98920.00;5016147;28;20235;-63
2023/05/31 05:37:07;;;;;;;10.17;2.60;;;;;;;13.11;63.37;98912.16;4994522;28;20232;-63
2023/05/31 05:40:00;;;;;;;5.80;2.30;;;;;;;13.19;64.67;98916.59;4995970;28;20268;-63
2023/05/31 05:42:27;;;;;;;8.17;2.47;;;;;;;13.33;61.55;98923.81;4998398;28;20282;-63
2023/05/31 05:44:54;;;;;;;7.53;2.03;;;;;;;13.54;60.96;98925.19;5002104;28;20228;-63
2023/05/31 05:47:21;;;;;;;6.13;2.23;;;;;;;13.70;61.34;98919.97;4998550;28;20695;-63
2023/05/31 05:49:53;;;;;;;5.07;1.77;;;;;;;14.00;61.92;98929.94;5002854;28;20772;-63
2023/05/31 05:52:20;;;;;;;5.07;2.07;;;;;;;14.22;58.71;98925.81;4998681;28;20317;-63
2023/05/31 05:54:46;;;;;;;8.70;2.43;;;;;;;14.39;60.09;98928.41;4992847;28;20693;-63
2023/05/31 05:57:15;;;;;;;5.97;2.40;;;;;;;14.63;57.57;98918.81;4995451;28;20280;-63
2023/05/31 05:59:44;;;;;;;5.30;2.67;;;;;;;14.85;57.93;98922.53;4994172;28;20242;-63
2023/05/31 06:02:20;;;;;;;6.83;2.50;;;;;;;15.01;58.24;98926.88;5002131;28;20708;-63
2023/05/31 06:04:47;;;;;;;6.47;2.63;;;;;;;15.13;56.82;98924.69;4997120;28;20309;-63
2023/05/31 06:07:14;;;;;;;9.77;2.43;;;;;;;15.29;56.87;98924.59;4993812;28;20319;-63
2023/05/31 06:09:41;;;;;;;5.20;2.20;;;;;;;15.37;55.62;98934.25;4991525;28;20412;-63
2023/05/31 06:12:09;;;;;;;4.67;2.10;;;;;;;15.52;54.90;98939.56;5005711;28;20232;-63
2023/05/31 06:14:43;;;;;;;6.13;1.97;;;;;;;15.67;53.57;98926.47;4990466;28;20240;-63
2023/05/31 06:17:10;;;;;;;5.77;2.17;;;;;;;15.74;53.68;98931.84;5004152;28;20239;-63
2023/05/31 06:19:40;;;;;;;5.50;1.93;;;;;;;16.05;54.90;98941.50;5001673;28;20245;-63
2023/05/31 06:22:08;;;;;;;6.27;2.50;;;;;;;16.23;53.00;98936.72;5015841;28;20737;-63
2023/05/31 06:24:59;;;;;;;5.20;1.93;;;;;;;16.47;52.56;98937.44;4993747;28;20360;-63
2023/05/31 06:27:26;;;;;;;6.77;2.50;;;;;;;16.59;53.17;98934.34;4993361;28;20227;-63
2023/05/31 06:29:57;;;;;;;4.97;2.07;;;;;;;16.74;51.28;98937.00;4998138;28;20234;-63
2023/05/31 06:32:30;;;;;;;5.50;2.00;;;;;;;16.80;51.84;98936.25;5000225;28;20332;-63
2023/05/31 06:34:57;;;;;;;3.87;2.23;;;;;;;16.85;50.99;98943.59;4995136;28;20597;-63
2023/05/31 06:37:24;;;;;;;7.93;2.00;;;;;;;17.00;52.24;98938.31;4992849;28;20231;-63
2023/05/31 06:39:51;;;;;;;9.43;1.93;;;;;;;17.12;53.25;98936.84;4994817;28;20258;-63
2023/05/31 06:42:18;;;;;;;10.90;2.47;;;;;;;17.21;54.96;98933.09;5000005;28;20230;-63
2023/05/31 06:44:55;;;;;;;3.77;2.10;;;;;;;17.46;53.39;98931.94;4992832;28;20257;-63
2023/05/31 06:47:40;;;;;;;6.93;2.30;;;;;;;17.37;51.53;98928.59;4993111;28;20253;-63
2023/05/31 06:50:16;;;;;;;5.90;2.60;;;;;;;17.40;50.95;98926.41;5000172;28;20222;-63
2023/05/31 06:53:09;;;;;;;3.87;2.30;;;;;;;17.43;50.81;98925.19;4993321;28;21162;-63
2023/05/31 06:55:44;;;;;;;8.67;2.30;;;;;;;17.41;50.73;98927.22;4999760;28;20577;-63
2023/05/31 06:58:16;;;;;;;7.43;1.90;;;;;;;17.51;49.98;98927.72;5002009;28;20242;-63
2023/05/31 07:00:44;;;;;;;10.67;2.17;;;;;;;17.58;50.09;98927.75;4998844;28;20239;-63
2023/05/31 07:03:11;;;;;;;7.20;2.30;;;;;;;17.86;50.62;98932.28;5001262;28;20230;-63
2023/05/31 07:05:40;;;;;;;7.07;1.93;;;;;;;18.09;52.76;98928.63;4999163;28;20255;-63
2023/05/31 07:08:07;;;;;;;6.30;2.60;;;;;;;18.32;52.64;98927.56;4992647;28;20658;-63
2023/05/31 07:10:42;;;;;;;4.43;2.03;;;;;;;18.50;51.54;98927.88;4999741;28;20613;-63
2023/05/31 07:13:09;;;;;;;7.23;2.57;;;;;;;18.32;48.98;98923.09;4994207;28;20236;-63
2023/05/31 07:15:35;;;;;;;7.63;2.03;;;;;;;18.36;49.34;98921.69;5013245;28;20294;-63
2023/05/31 07:18:04;;;;;;;5.63;2.30;;;;;;;18.26;48.88;98922.03;4995708;28;20543;-63
2023/05/31 07:20:32;;;;;;;7.83;2.20;;;;;;;18.42;48.97;98918.28;4991147;28;20591;-63
2023/05/31 07:22:58;;;;;;;5.17;2.20;;;;;;;18.50;48.75;98914.66;4997518;28;20704;-63
2023/05/31 07:25:25;;;;;;;5.37;2.50;;;;;;;18.71;48.10;98926.97;4992971;28;20239;-63
2023/05/31 07:27:51;;;;;;;4.40;2.30;;;;;;;18.69;48.08;98921.06;4997170;28;20736;-63
2023/05/31 07:30:18;;;;;;;8.67;2.40;;;;;;;18.98;48.26;98919.16;4997342;28;20329;-63
2023/05/31 07:32:44;;;;;;;5.57;2.00;;;;;;;19.29;51.00;98928.38;4995017;28;20251;-64
2023/05/31 07:35:12;;;;;;;6.00;1.93;;;;;;;19.36;46.04;98919.66;4998955;28;20284;-63
2023/05/31 07:37:39;;;;;;;5.83;2.50;;;;;;;19.57;45.07;98916.03;4994886;28;20698;-63
2023/05/31 07:40:07;;;;;;;6.47;2.80;;;;;;;19.80;43.23;98912.97;4997573;28;20945;-63
2023/05/31 07:42:34;;;;;;;3.57;2.30;;;;;;;19.87;41.14;98919.09;4990909;28;20258;-64
2023/05/31 07:45:00;;;;;;;5.40;2.23;;;;;;;19.91;39.14;98915.03;4998362;28;20232;-64
2023/05/31 07:47:27;;;;;;;4.53;2.03;;;;;;;20.05;40.43;98910.53;4995612;28;20286;-63
2023/05/31 07:49:54;;;;;;;3.63;2.20;;;;;;;19.96;40.41;98917.06;5003336;28;20232;-63
2023/05/31 07:52:22;;;;;;;7.97;2.20;;;;;;;20.13;40.83;98911.34;5001760;28;20241;-63
2023/05/31 07:54:49;;;;;;;5.90;2.67;;;;;;;20.12;40.58;98909.72;4998308;28;20236;-63
2023/05/31 07:57:16;;;;;;;7.53;2.50;;;;;;;20.02;40.02;98907.50;5001869;28;20234;-63
2023/05/31 07:59:42;;;;;;;6.40;2.53;;;;;;;20.08;41.07;98917.28;4997205;28;20231;-63
2023/05/31 08:02:09;;;;;;;7.57;2.37;;;;;;;20.03;40.84;98920.53;5000969;28;20610;-63
2023/05/31 08:04:40;;;;;;;6.13;2.60;;;;;;;20.03;39.95;98915.22;5000052;28;20232;-63
2023/05/31 08:07:07;;;;;;;3.83;1.93;;;;;;;19.85;40.87;98920.31;5003056;28;20282;-63
2023/05/31 08:10:00;;;;;;;4.70;2.03;;;;;;;19.96;41.81;98910.97;4998040;28;20242;-63
2023/05/31 08:12:26;;;;;;;5.90;2.60;;;;;;;20.17;41.42;98907.25;4995152;28;20234;-63
2023/05/31 08:14:53;;;;;;;3.63;1.97;;;;;;;20.21;41.26;98911.13;5001427;28;20236;-63
2023/05/31 08:17:20;;;;;;;3.03;1.70;;;;;;;20.21;40.89;98917.22;4997806;28;20233;-63
2023/05/31 08:19:46;;;;;;;7.07;2.30;;;;;;;20.25;41.36;98907.06;4999005;28;20228;-63
2023/05/31 08:22:13;;;;;;;3.33;1.70;;;;;;;20.01;41.18;98916.47;4998879;28;20651;-63
2023/05/31 08:24:41;;;;;;;4.50;2.17;;;;;;;20.26;41.19;98913.16;4998170;28;20238;-63
2023/05/31 08:27:09;;;;;;;7.73;2.50;;;;;;;20.34;40.99;98915.59;5017070;28;20241;-63
2023/05/31 08:29:40;;;;;;;9.07;2.30;;;;;;;20.45;42.02;98907.00;4997190;28;20236;-63
2023/05/31 08:32:07;;;;;;;7.03;2.13;;;;;;;20.54;41.00;98906.75;5000281;28;20294;-63
2023/05/31 08:34:37;;;;;;;5.50;2.50;;;;;;;20.43;40.82;98916.19;4996305;28;20235;-63
2023/05/31 08:37:04;;;;;;;7.33;2.33;;;;;;;20.54;41.10;98912.06;5000009;28;20236;-63
2023/05/31 08:39:31;;;;;;;5.77;2.27;;;;;;;20.48;40.99;98908.44;4996688;28;20867;-63
2023/05/31 08:42:01;;;;;;;4.20;2.27;;;;;;;20.58;40.92;98902.66;4998274;28;20326;-63
2023/05/31 08:44:30;;;;;;;5.47;2.40;;;;;;;20.61;40.60;98908.38;4995331;28;20710;-63
2023/05/31 08:46:58;;;;;;;5.83;2.00;;;;;;;20.63;40.40;98897.56;5000915;28;20221;-63
2023/05/31 08:49:25;;;;;;;5.30;2.53;;;;;;;20.87;40.53;98896.03;4997271;28;20226;-64
2023/05/31 08:51:53;;;;;;;6.50;1.97;;;;;;;20.92;39.72;98898.09;5014098;28;20244;-63
2023/05/31 08:54:20;;;;;;;5.63;2.03;;;;;;;21.09;40.08;98890.44;4998880;28;20227;-63
2023/05/31 08:56:47;;;;;;;10.23;2.33;;;;;;;21.26;39.63;98898.69;4997811;28;21424;-63
2023/05/31 08:59:17;;;;;;;5.53;2.40;;;;;;;21.14;39.91;98895.91;4999404;28;20285;-63
2023/05/31 09:01:45;;;;;;;4.30;2.17;;;;;;;21.40;39.67;98880.84;4993321;28;20242;-63
2023/05/31 09:04:14;;;;;;;8.53;3.00;;;;;;;21.49;38.99;98892.81;4998940;28;20226;-63
2023/05/31 09:06:40;;;;;;;6.57;2.30;;;;;;;21.63;40.49;98882.13;4995920;28;20276;-63
2023/05/31 09:09:08;;;;;;;4.37;2.47;;;;;;;21.77;38.99;98882.81;4999665;28;20627;-63
2023/05/31 09:11:37;;;;;;;5.63;2.23;;;;;;;21.86;38.86;98881.53;4996572;28;20233;-63
2023/05/31 09:14:04;;;;;;;5.67;2.40;;;;;;;22.04;38.61;98872.75;4999133;28;20713;-63
2023/05/31 09:16:31;;;;;;;7.57;2.77;;;;;;;22.14;38.10;98869.59;4998309;28;20886;-63
2023/05/31 09:19:04;;;;;;;6.83;2.60;;;;;;;22.31;35.12;98883.13;4999009;28;20233;-63
2023/05/31 09:21:39;;;;;;;4.40;2.80;;;;;;;22.43;34.52;98875.19;4996907;28;20226;-63
2023/05/31 09:24:06;;;;;;;9.53;3.07;;;;;;;22.52;34.55;98873.09;5000055;28;20681;-63
2023/05/31 09:26:33;;;;;;;6.87;2.83;;;;;;;22.55;33.73;98868.13;4998846;28;20233;-63
2023/05/31 09:29:00;;;;;;;5.37;2.63;;;;;;;22.66;34.37;98881.72;4999588;28;20233;-63
2023/05/31 09:31:27;;;;;;;5.37;2.70;;;;;;;22.78;35.03;98871.16;4996382;28;20235;-63
2023/05/31 09:33:54;;;;;;;4.07;2.47;;;;;;;22.85;33.71;98856.69;4998385;28;20229;-63
2023/05/31 09:36:27;;;;;;;4.63;2.73;;;;;;;22.91;33.96;98872.81;4998475;28;20232;-63
2023/05/31 09:39:00;;;;;;;5.40;2.30;;;;;;;22.85;33.83;98862.03;4996067;28;20236;-63
2023/05/31 09:41:28;;;;;;;8.97;2.60;;;;;;;23.02;34.05;98874.69;4997585;28;20657;-63
2023/05/31 09:43:54;;;;;;;6.10;2.37;;;;;;;22.93;32.27;98862.75;4998872;28;20239;-63
2023/05/31 09:46:22;;;;;;;5.00;2.93;;;;;;;23.12;32.68;98868.81;4998852;28;20221;-63
2023/05/31 09:48:58;;;;;;;6.20;2.43;;;;;;;23.05;30.71;98874.25;4994634;28;20231;-63
2023/05/31 09:51:27;;;;;;;6.37;2.60;;;;;;;23.03;31.68;98863.03;4995634;28;20234;-63
2023/05/31 09:53:55;;;;;;;5.77;2.50;;;;;;;23.17;33.06;98858.31;4999578;28;21142;-63
2023/05/31 09:56:23;;;;;;;5.40;2.63;;;;;;;23.19;31.73;98852.75;5001262;28;20232;-63
2023/05/31 09:58:51;;;;;;;6.10;2.63;;;;;;;23.17;32.46;98850.31;4998387;28;20569;-63
2023/05/31 10:01:18;;;;;;;4.43;2.90;;;;;;;23.18;33.35;98864.44;4998144;28;20302;-63
2023/05/31 10:03:46;;;;;;;4.33;2.43;;;;;;;23.20;33.31;98838.41;4996793;28;20277;-63
2023/05/31 10:06:16;;;;;;;6.30;2.83;;;;;;;23.18;31.73;98859.13;5000200;28;20314;-63
2023/05/31 10:08:45;;;;;;;5.27;2.40;;;;;;;23.37;32.16;98858.00;4991712;28;20313;-63
2023/05/31 10:11:14;;;;;;;4.40;2.37;;;;;;;23.53;32.57;98845.91;4997544;28;20310;-63
2023/05/31 10:13:45;;;;;;;4.80;2.43;;;;;;;23.39;31.60;98850.59;4991681;28;20242;-63
2023/05/31 10:16:12;;;;;;;3.60;2.20;;;;;;;23.19;31.00;98850.09;4997793;28;20230;-64
2023/05/31 10:18:45;;;;;;;6.90;3.00;;;;;;;23.32;30.03;98860.56;4995401;28;20293;-64
2023/05/31 10:21:20;;;;;;;9.50;2.50;;;;;;;23.36;29.71;98848.41;4996443;28;20693;-63
2023/05/31 10:23:55;;;;;;;10.47;2.97;;;;;;;23.37;29.59;98863.34;4993347;28;21105;-63
2023/05/31 10:26:23;;;;;;;6.13;2.53;;;;;;;23.49;29.87;98858.06;4997418;28;20234;-63
2023/05/31 10:28:55;;;;;;;7.33;2.57;;;;;;;23.64;29.64;98865.59;4997334;28;20228;-63
2023/05/31 10:31:26;;;;;;;7.17;2.40;;;;;;;23.72;30.72;98859.13;4996496;28;20243;-63
2023/05/31 10:34:01;;;;;;;7.53;2.50;;;;;;;23.66;29.29;98863.50;4997580;28;20225;-63
2023/05/31 10:36:28;;;;;;;19.27;3.13;;;;;;;23.71;29.69;98847.63;4997127;28;20231;-63
2023/05/31 10:39:04;;;;;;;5.17;2.07;;;;;;;23.81;30.30;98840.91;5001687;28;20591;-63
2023/05/31 10:41:39;;;;;;;3.93;2.50;;;;;;;24.05;31.09;98852.38;4993374;28;20317;-64
2023/05/31 10:44:10;;;;;;;3.40;2.33;;;;;;;24.13;29.38;98836.03;5001472;28;20238;-64
2023/05/31 10:46:40;;;;;;;5.53;2.17;;;;;;;24.16;29.57;98848.09;4996555;28;20229;-64
2023/05/31 10:49:10;;;;;;;7.07;2.73;;;;;;;24.22;28.27;98841.81;4998839;28;20233;-64
2023/05/31 10:51:40;;;;;;;6.50;2.53;;;;;;;24.31;29.87;98844.94;4995774;28;20235;-64
2023/05/31 10:54:08;;;;;;;5.77;2.13;;;;;;;24.27;29.67;98844.59;4996945;28;20318;-64
2023/05/31 10:56:38;;;;;;;7.10;2.90;;;;;;;24.29;29.57;98842.50;4997437;28;20706;-64
2023/05/31 10:59:05;;;;;;;7.40;2.23;;;;;;;24.26;30.81;98832.31;4993506;28;20231;-64
2023/05/31 11:01:31;;;;;;;4.57;2.00;;;;;;;24.49;29.70;98846.59;4990908;28;20236;-64
2023/05/31 11:03:58;;;;;;;5.87;2.40;;;;;;;24.35;29.41;98834.63;4996476;28;20726;-64
2023/05/31 11:06:27;;;;;;;7.83;2.70;;;;;;;24.39;29.14;98833.88;4993101;28;20694;-64
2023/05/31 11:08:58;;;;;;;6.30;2.13;;;;;;;24.14;29.95;98834.97;4996513;28;20235;-64
2023/05/31 11:11:46;;;;;;;10.10;2.70;;;;;;;24.05;29.75;98835.59;4994497;28;20280;-64
2023/05/31 11:14:27;;;;;;;4.47;2.50;;;;;;;24.30;29.89;98830.78;4999376;28;20331;-64
2023/05/31 11:17:16;;;;;;;4.20;2.20;;;;;;;24.50;30.56;98826.88;4992732;28;20232;-64
2023/05/31 11:19:43;;;;;;;7.90;2.47;;;;;;;24.24;28.96;98836.25;4992750;28;20252;-64
2023/05/31 11:22:11;;;;;;;7.87;2.30;;;;;;;24.47;30.08;98838.03;4996905;28;20237;-64
2023/05/31 11:24:50;;;;;;;6.27;2.37;;;;;;;24.30;29.10;98829.97;4995156;28;20221;-64
2023/05/31 11:27:19;;;;;;;11.83;2.53;;;;;;;24.49;30.48;98824.47;4996363;28;20232;-61
2023/05/31 11:29:59;;;;;;;5.63;2.20;;;;;;;24.43;29.85;98831.53;4993751;28;20262;-61
2023/05/31 11:33:07;;;;;;;8.10;2.30;;;;;;;24.51;29.37;98833.84;4994146;28;20228;-63
2023/05/31 11:35:33;;;;;;;5.50;2.40;;;;;;;24.54;29.19;98827.22;4992323;28;20244;-63
2023/05/31 11:38:04;;;;;;;3.90;2.17;;;;;;;24.62;28.93;98818.84;4997845;28;20228;-63
2023/05/31 11:40:32;;;;;;;8.43;2.30;;;;;;;24.59;29.37;98814.78;4994621;28;20248;-63
2023/05/31 11:43:11;;;;;;;6.47;2.40;;;;;;;24.54;27.46;98814.69;4995461;28;20328;-63
2023/05/31 11:45:44;;;;;;;5.70;2.10;;;;;;;24.58;29.07;98812.38;4994531;28;20235;-63
2023/05/31 11:48:38;;;;;;;4.20;2.10;;;;;;;24.76;28.90;98814.88;4994200;28;20700;-63